Time;durP1;ratioP1;P1;durP2;ratioP2;P2;SDS_P1;SDS_P2;PMS_P1;PMS_P2;Temp;Humidity;BMP_temperature;BMP_pressure;BME280_temperature;BME280_humidity;BME280_pressure;Samples;Min_cycle;Max_cycle;Signal;HPM_P1;HPM_P2
2022/03/19 00:01:44;;;;;;;;;;;;;;;;;;6077939;23;20398;-91
2022/03/19 00:04:40;;;;;;;;;;;;;;;;;;;;;
2022/03/19 00:07:17;;;;;;;;;;;;;;;;;;6182277;23;19928;-90
2022/03/19 00:12:49;;;;;;;;;;;;;;;;;;;;;
2022/03/19 00:15:23;;;;;;;;;;;;;;;;;;6214146;23;19935;-93
2022/03/19 00:17:57;;;;;;;;;;;;;;;;;;6186623;23;20295;-92
2022/03/19 00:23:12;;;;;;;;;;;;;;;;;;6092548;23;20136;-90
2022/03/19 00:25:44;;;;;;;;;;;;;;;;;;6169808;23;19975;-90
2022/03/19 00:28:27;;;;;;;;;;;;;;;;;;6186920;23;19911;-90
2022/03/19 00:31:17;;;;;;;;;;;;;;;;;;6186867;23;19900;-91
2022/03/19 00:33:48;;;;;;;;;;;;;;;;;;6210132;23;20041;-91
2022/03/19 00:53:07;;;;;;;;;;;;;;;;;;;;;
2022/03/19 00:55:36;;;;;;;;;;;;;;;;;;6055332;23;20409;-90
2022/03/19 01:12:14;;;;;;;;;;;;;;;;;;;;;
2022/03/19 01:14:40;;;;;;;;;;;;;;;;;;5978437;24;19986;-90
2022/03/19 01:17:13;;;;;;;;;;;;;;;;;;5982381;23;19902;-91
2022/03/19 01:22:27;;;;;;;;;;;;;;;;;;6092012;23;19995;-91
2022/03/19 01:30:26;;;;;;;;;;;;;;;;;;6015550;23;19925;-90
2022/03/19 01:41:55;;;;;;;;;;;;;;;;;;6091856;23;19936;-91
2022/03/19 01:45:00;;;;;;;;;;;;;;;;;;6091178;23;20378;-90
2022/03/19 01:47:20;;;;;;;;;;;;;;;;;;;;;
2022/03/19 01:49:56;;;;;;;;;;;;;;;;;;;;;
2022/03/19 01:55:11;;;;;;;;;;;;;;;;;;6092241;23;19947;-91
2022/03/19 01:57:40;;;;;;;;;;;;;;;;;;6068156;23;19905;-90
2022/03/19 02:02:57;;;;;;;;;;;;;;;;;;6152020;23;19938;-91
2022/03/19 02:11:05;;;;;;;;;;;;;;;;;;6079416;23;19950;-90
2022/03/19 02:13:33;;;;;;;;;;;;;;;;;;6153801;23;19967;-89
2022/03/19 02:16:09;;;;;;;;;;;;;;;;;;6188374;23;20328;-91
2022/03/19 02:18:46;;;;;;;;;;;;;;;;;;6188614;23;19900;-90
2022/03/19 02:29:40;;;;;;;;;;;;;;;;;;6094000;23;19984;-91
2022/03/19 02:32:27;;;;;;;;;;;;;;;;;;6176976;23;20029;-90
2022/03/19 02:34:54;;;;;;;;;;;;;;;;;;6213892;23;20050;-89
2022/03/19 02:37:20;;;;;;;;;;;;;;;;;;6187903;23;19902;-90
2022/03/19 02:39:48;;;;;;;;;;;;;;;;;;6187841;23;20536;-89
2022/03/19 02:42:36;;;;;;;;;;;;;;;;;;6187719;23;20240;-91
2022/03/19 02:45:01;;;;;;;;;;;;;;;;;;6213559;23;20303;-90
2022/03/19 02:47:29;;;;;;;;;;;;;;;;;;6188618;23;20348;-90
2022/03/19 02:52:54;;;;;;;;;;;;;;;;;;;;;
2022/03/19 02:55:33;;;;;;;;;;;;;;;;;;;;;
2022/03/19 03:03:51;;;;;;;;;;;;;;;;;;;;;
2022/03/19 03:09:05;;;;;;;;;;;;;;;;;;6181994;23;19971;-93
2022/03/19 03:11:35;;;;;;;;;;;;;;;;;;6187669;23;19928;-92
2022/03/19 03:16:50;;;;;;;;;;;;;;;;;;6192857;23;20399;-92
2022/03/19 03:27:43;;;;;;;;;;;;;;;;;;6077571;23;20263;-91
2022/03/19 03:33:08;;;;;;;;;;;;;;;;;;;;;
2022/03/19 03:35:34;;;;;;;;;;;;;;;;;;6064651;23;19972;-90
2022/03/19 03:43:37;;;;;;;;;;;;;;;;;;6059329;23;19929;-90
2022/03/19 03:52:04;;;;;;;;;;;;;;;;;;6060819;23;19980;-92
2022/03/19 03:54:32;;;;;;;;;;;;;;;;;;;;;
2022/03/19 03:57:08;;;;;;;;;;;;;;;;;;;;;
2022/03/19 04:02:49;;;;;;;;;;;;;;;;;;6092569;23;20211;-91
2022/03/19 04:05:28;;;;;;;;;;;;;;;;;;6205905;23;20320;-90
2022/03/19 04:08:09;;;;;;;;;;;;;;;;;;;;;
2022/03/19 04:19:17;;;;;;;;;;;;;;;;;;6078626;23;19932;-89
2022/03/19 04:27:15;;;;;;;;;;;;;;;;;;6063640;23;19945;-91
2022/03/19 04:32:37;;;;;;;;;;;;;;;;;;;;;
2022/03/19 04:40:59;;;;;;;;;;;;;;;;;;6035078;23;19984;-90
2022/03/19 04:43:25;;;;;;;;;;;;;;;;;;6033639;23;20324;-90
2022/03/19 04:45:53;;;;;;;;;;;;;;;;;;6034979;23;19962;-90
2022/03/19 04:51:36;;;;;;;;;;;;;;;;;;;;;
2022/03/19 04:56:37;;;;;;;;;;;;;;;;;;6006599;23;19966;-89
2022/03/19 04:59:13;;;;;;;;;;;;;;;;;;;;;
2022/03/19 05:01:51;;;;;;;;;;;;;;;;;;5978608;24;20284;-90
2022/03/19 05:07:11;;;;;;;;;;;;;;;;;;5978698;24;19909;-91
2022/03/19 05:29:28;;;;;;;;;;;;;;;;;;5945693;24;20244;-91
2022/03/19 05:31:53;;;;;;;;;;;;;;;;;;5966255;23;19918;-88
2022/03/19 05:34:31;;;;;;;;;;;;;;;;;;6067854;23;20333;-88
2022/03/19 05:37:00;;;;;;;;;;;;;;;;;;6127224;23;19923;-89
2022/03/19 05:39:26;;;;;;;;;;;;;;;;;;6186189;23;19903;-90
2022/03/19 05:41:55;;;;;;;;;;;;;;;;;;6187858;23;19919;-90
2022/03/19 05:44:21;;;;;;;;;;;;;;;;;;6188373;23;19900;-89
2022/03/19 05:46:47;;;;;;;;;;;;;;;;;;6188450;23;19927;-90
2022/03/19 05:49:13;;;;;;;;;;;;;;;;;;6188054;23;19900;-92
2022/03/19 05:51:39;;;;;;;;;;;;;;;;;;6188075;23;19950;-90
2022/03/19 05:54:05;;;;;;;;;;;;;;;;;;6188793;23;19971;-89
2022/03/19 05:56:34;;;;;;;;;;;;;;;;;;6188940;23;20355;-90
2022/03/19 05:59:00;;;;;;;;;;;;;;;;;;6188745;23;19904;-89
2022/03/19 06:01:26;;;;;;;;;;;;;;;;;;6187952;23;20156;-89
2022/03/19 06:03:52;;;;;;;;;;;;;;;;;;6188258;23;19979;-90
2022/03/19 06:06:18;;;;;;;;;;;;;;;;;;6187894;23;20217;-90
2022/03/19 06:08:44;;;;;;;;;;;;;;;;;;6188014;23;19971;-90
2022/03/19 06:11:10;;;;;;;;;;;;;;;;;;6188028;23;20218;-89
2022/03/19 06:13:37;;;;;;;;;;;;;;;;;;6189214;23;19907;-90
2022/03/19 06:16:03;;;;;;;;;;;;;;;;;;6188573;23;19900;-89
2022/03/19 06:18:28;;;;;;;;;;;;;;;;;;6187971;23;20317;-90
2022/03/19 06:20:56;;;;;;;;;;;;;;;;;;6187823;23;19953;-89
2022/03/19 06:23:22;;;;;;;;;;;;;;;;;;6187692;23;19899;-90
2022/03/19 06:25:48;;;;;;;;;;;;;;;;;;6188092;23;20352;-89
2022/03/19 06:28:14;;;;;;;;;;;;;;;;;;6187946;23;20324;-89
2022/03/19 06:30:40;;;;;;;;;;;;;;;;;;6188085;23;19983;-93
2022/03/19 06:33:15;;;;;;;;;;;;;;;;;;6188706;23;19947;-92
2022/03/19 06:38:26;;;;;;;;;;;;;;;;;;6214211;23;20335;-90
2022/03/19 06:41:01;;;;;;;;;;;;;;;;;;6187637;23;20245;-91
2022/03/19 06:43:27;;;;;;;;;;;;;;;;;;6189012;23;19899;-91
2022/03/19 06:45:58;;;;;;;;;;;;;;;;;;6189683;23;19900;-90
2022/03/19 06:59:37;;;;;;;;;;;;;;;;;;6064615;23;19905;-90
2022/03/19 07:02:03;;;;;;;;;;;;;;;;;;6111283;23;19962;-91
2022/03/19 07:04:29;;;;;;;;;;;;;;;;;;6187237;23;20324;-90
2022/03/19 07:07:04;;;;;;;;;;;;;;;;;;6187618;23;19907;-90
2022/03/19 07:09:52;;;;;;;;;;;;;;;;;;6188212;23;20141;-91
2022/03/19 07:12:30;;;;;;;;;;;;;;;;;;;;;
2022/03/19 07:14:58;;;;;;;;;;;;;;;;;;6214223;23;19982;-91
2022/03/19 07:17:24;;;;;;;;;;;;;;;;;;6187573;23;19900;-90
2022/03/19 07:19:50;;;;;;;;;;;;;;;;;;6186618;23;20244;-89
2022/03/19 07:22:22;;;;;;;;;;;;;;;;;;6187456;23;19907;-92
2022/03/19 07:24:48;;;;;;;;;;;;;;;;;;6187440;23;19899;-89
2022/03/19 07:27:21;;;;;;;;;;;;;;;;;;6187678;23;19900;-90
2022/03/19 07:29:47;;;;;;;;;;;;;;;;;;6187113;23;19907;-89
2022/03/19 07:32:13;;;;;;;;;;;;;;;;;;6187090;23;19930;-89
2022/03/19 07:34:39;;;;;;;;;;;;;;;;;;6187846;23;20289;-89
2022/03/19 07:39:57;;;;;;;;;;;;;;;;;;6192496;23;19946;-90
2022/03/19 07:42:23;;;;;;;;;;;;;;;;;;6186882;23;20217;-90
2022/03/19 07:44:49;;;;;;;;;;;;;;;;;;6186972;23;19919;-90
2022/03/19 07:47:15;;;;;;;;;;;;;;;;;;6186580;23;19899;-91
2022/03/19 07:49:41;;;;;;;;;;;;;;;;;;6187156;23;19914;-89
2022/03/19 07:52:09;;;;;;;;;;;;;;;;;;6187315;23;20280;-90
2022/03/19 07:54:46;;;;;;;;;;;;;;;;;;6188321;23;20273;-91
2022/03/19 07:57:16;;;;;;;;;;;;;;;;;;6193094;23;19907;-92
2022/03/19 07:59:41;;;;;;;;;;;;;;;;;;6189198;23;19900;-88
2022/03/19 08:02:10;;;;;;;;;;;;;;;;;;6187702;23;20222;-90
2022/03/19 08:04:36;;;;;;;;;;;;;;;;;;6187281;23;19907;-88
2022/03/19 08:07:02;;;;;;;;;;;;;;;;;;6186268;23;20325;-87
2022/03/19 08:09:29;;;;;;;;;;;;;;;;;;6186102;23;19904;-88
2022/03/19 08:11:55;;;;;;;;;;;;;;;;;;6185653;23;19899;-87
2022/03/19 08:14:21;;;;;;;;;;;;;;;;;;6186868;23;19900;-87
2022/03/19 08:16:47;;;;;;;;;;;;;;;;;;6179291;23;19907;-89
2022/03/19 08:19:13;;;;;;;;;;;;;;;;;;6186375;23;19907;-90
2022/03/19 08:21:39;;;;;;;;;;;;;;;;;;6187153;23;19908;-89
2022/03/19 08:24:05;;;;;;;;;;;;;;;;;;6185416;23;20295;-89
2022/03/19 08:26:31;;;;;;;;;;;;;;;;;;6185863;23;20279;-89
2022/03/19 08:28:58;;;;;;;;;;;;;;;;;;6185548;23;20317;-91
2022/03/19 08:31:24;;;;;;;;;;;;;;;;;;6186486;23;19900;-88
2022/03/19 08:33:50;;;;;;;;;;;;;;;;;;6185599;23;19907;-91
2022/03/19 08:36:16;;;;;;;;;;;;;;;;;;6186008;23;19927;-94
2022/03/19 08:41:26;;;;;;;;;;;;;;;;;;6211884;23;20027;-88
2022/03/19 08:43:52;;;;;;;;;;;;;;;;;;6185530;23;19903;-92
2022/03/19 08:46:21;;;;;;;;;;;;;;;;;;6188204;23;19900;-88
2022/03/19 08:48:50;;;;;;;;;;;;;;;;;;6187646;23;19904;-91
2022/03/19 08:54:00;;;;;;;;;;;;;;;;;;6212840;23;19906;-88
2022/03/19 08:56:29;;;;;;;;;;;;;;;;;;6185782;23;19970;-87
2022/03/19 08:58:55;;;;;;;;;;;;;;;;;;6211505;23;19907;-87
2022/03/19 09:01:21;;;;;;;;;;;;;;;;;;6185835;23;19907;-87
2022/03/19 09:03:47;;;;;;;;;;;;;;;;;;6185957;23;19923;-87
2022/03/19 09:06:14;;;;;;;;;;;;;;;;;;6186107;23;19900;-88
2022/03/19 09:08:41;;;;;;;;;;;;;;;;;;6186281;23;19928;-89
2022/03/19 09:11:07;;;;;;;;;;;;;;;;;;6186662;23;19904;-90
2022/03/19 09:13:33;;;;;;;;;;;;;;;;;;6186246;23;19946;-91
2022/03/19 09:15:59;;;;;;;;;;;;;;;;;;6185471;23;19907;-91
2022/03/19 09:18:36;;;;;;;;;;;;;;;;;;6186301;23;19907;-92
2022/03/19 09:21:02;;;;;;;;;;;;;;;;;;6186339;23;19904;-91
2022/03/19 09:23:31;;;;;;;;;;;;;;;;;;6187044;23;19979;-91
2022/03/19 09:25:57;;;;;;;;;;;;;;;;;;6186715;23;19900;-89
2022/03/19 09:28:26;;;;;;;;;;;;;;;;;;6187031;23;19907;-92
2022/03/19 09:30:55;;;;;;;;;;;;;;;;;;6187349;23;19900;-91
2022/03/19 09:33:21;;;;;;;;;;;;;;;;;;6187690;23;19951;-88
2022/03/19 09:35:47;;;;;;;;;;;;;;;;;;6185148;23;19904;-89
2022/03/19 09:38:13;;;;;;;;;;;;;;;;;;6187326;23;19907;-91
2022/03/19 09:40:45;;;;;;;;;;;;;;;;;;6187692;23;19900;-93
2022/03/19 09:43:12;;;;;;;;;;;;;;;;;;6187892;23;19908;-89
2022/03/19 09:45:38;;;;;;;;;;;;;;;;;;6188830;23;19908;-88
2022/03/19 09:48:04;;;;;;;;;;;;;;;;;;6189485;23;19931;-90
2022/03/19 09:50:30;;;;;;;;;;;;;;;;;;6214417;22;19888;-89
2022/03/19 09:52:57;;;;;;;;;;;;;;;;;;6214604;22;19911;-90
2022/03/19 09:55:26;;;;;;;;;;;;;;;;;;6211575;23;19910;-90
2022/03/19 09:57:52;;;;;;;;;;;;;;;;;;6195129;23;19907;-87
2022/03/19 10:00:22;;;;;;;;;;;;;;;;;;6189523;23;19902;-90
2022/03/19 10:08:43;;;;;;;;;;;;;;;;;;6157164;23;20309;-90
2022/03/19 10:11:09;;;;;;;;;;;;;;;;;;6187403;23;19904;-89
2022/03/19 10:19:16;;;;;;;;;;;;;;;;;;6063808;23;20354;-91
2022/03/19 10:30:19;;;;;;;;;;;;;;;;;;;;;
2022/03/19 10:43:50;;;;;;;;;;;;;;;;;;6007121;23;19906;-91
2022/03/19 10:49:02;;;;;;;;;;;;;;;;;;5998103;23;19946;-90
2022/03/19 10:54:15;;;;;;;;;;;;;;;;;;6109608;23;20339;-93
2022/03/19 10:57:03;;;;;;;;;;;;;;;;;;6194646;23;19946;-92
2022/03/19 11:02:15;;;;;;;;;;;;;;;;;;6195119;23;20214;-92
2022/03/19 11:05:02;;;;;;;;;;;;;;;;;;6189827;23;19907;-91
2022/03/19 11:07:28;;;;;;;;;;;;;;;;;;6213370;23;19935;-92
2022/03/19 11:10:07;;;;;;;;;;;;;;;;;;6190944;23;19903;-93
2022/03/19 11:15:19;;;;;;;;;;;;;;;;;;6157598;23;19931;-91
2022/03/19 11:18:07;;;;;;;;;;;;;;;;;;6192399;23;20313;-93
2022/03/19 11:37:49;;;;;;;;;;;;;;;;;;6007433;23;19908;-92
2022/03/19 11:57:04;;;;;;;;;;;;;;;;;;5934070;23;19909;-91
2022/03/19 11:59:40;;;;;;;;;;;;;;;;;;;;;
2022/03/19 12:02:08;;;;;;;;;;;;;;;;;;6127530;23;19992;-92
2022/03/19 12:04:56;;;;;;;;;;;;;;;;;;6187405;23;19971;-91
2022/03/19 12:07:25;;;;;;;;;;;;;;;;;;6212548;23;19967;-92
2022/03/19 12:09:59;;;;;;;;;;;;;;;;;;6187303;23;19900;-92
2022/03/19 12:12:25;;;;;;;;;;;;;;;;;;6191302;23;20340;-90
2022/03/19 12:14:51;;;;;;;;;;;;;;;;;;6190496;23;19900;-91
2022/03/19 12:51:04;;;;;;;;;;;;;;;;;;5896348;24;19952;-93
2022/03/19 12:56:16;;;;;;;;;;;;;;;;;;5893174;24;20507;-93
2022/03/19 13:43:31;;;;;;;;;;;;;;;;;;5956086;24;19915;-88
2022/03/19 13:46:21;;;;;;;;;;;;;;;;;;5914616;24;19903;-94
2022/03/19 17:25:39;;;;;;;;;;;;;;;;;;6092017;23;19985;-90
2022/03/19 17:34:25;;;;;;;;;;;;;;;;;;;;;
2022/03/19 18:12:58;;;;;;;;;;;;;;;;;;6063768;23;19901;-90
2022/03/19 19:09:44;;;;;;;;;;;;;;;;;;;;;
2022/03/19 19:20:45;;;;;;;;;;;;;;;;;;5791555;24;19904;-90
2022/03/19 19:25:56;;;;;;;;;;;;;;;;;;5843451;24;20008;-80
2022/03/19 19:28:21;;;;;;;;;;;24.60;99.90;;;;;;5830965;24;20368;-74
2022/03/19 19:30:47;;;;;;;;;;;;;;;;;;5946512;23;19953;-82
2022/03/19 19:34:15;;;;;;;55.90;37.30;;;23.40;62.40;;;;;;6104366;23;21373;-92
2022/03/19 19:44:37;;;;;;;;;;;;;;;;;;;;;
